createdAt,value
2018-10-07T00:02:25.572Z,97.50
2018-10-07T00:04:53.098Z,97.60
2018-10-07T00:07:20.638Z,97.60
2018-10-07T00:09:48.124Z,97.70
2018-10-07T00:12:15.692Z,97.90
2018-10-07T00:14:43.234Z,98.00
2018-10-07T00:17:10.913Z,98.00
2018-10-07T00:19:38.430Z,98.10
2018-10-07T00:22:06.030Z,98.10
2018-10-07T00:24:33.526Z,98.10
2018-10-07T00:27:01.123Z,98.10
2018-10-07T00:29:28.643Z,98.20
2018-10-07T00:32:01.808Z,98.20
2018-10-07T00:34:29.368Z,98.30
2018-10-07T00:36:56.986Z,98.30
2018-10-07T00:39:24.620Z,98.40
2018-10-07T00:41:52.083Z,98.50
2018-10-07T00:44:19.614Z,98.70
2018-10-07T00:46:47.138Z,98.80
2018-10-07T00:49:14.639Z,98.80
2018-10-07T00:51:42.164Z,98.80
2018-10-07T00:54:09.648Z,98.90
2018-10-07T00:56:37.238Z,99.00
2018-10-07T00:59:05.102Z,99.00
2018-10-07T01:01:32.632Z,99.10
2018-10-07T01:04:00.140Z,99.10
2018-10-07T01:06:27.606Z,99.10
2018-10-07T01:08:55.112Z,99.10
2018-10-07T01:11:22.621Z,99.20
2018-10-07T01:13:50.152Z,99.20
2018-10-07T01:16:17.651Z,99.30
2018-10-07T01:18:45.134Z,99.40
2018-10-07T01:21:12.873Z,99.50
2018-10-07T01:23:40.354Z,99.60
2018-10-07T01:26:07.845Z,99.70
2018-10-07T01:28:35.320Z,99.80
2018-10-07T01:31:02.890Z,99.90
2018-10-07T01:33:30.357Z,99.90
2018-10-07T01:35:57.858Z,99.90
2018-10-07T01:38:25.365Z,99.90
2018-10-07T01:40:52.863Z,99.90
2018-10-07T01:43:20.495Z,99.90
2018-10-07T01:45:48.004Z,99.90
2018-10-07T01:48:15.530Z,99.90
2018-10-07T01:50:43.062Z,99.90
2018-10-07T01:53:10.569Z,99.90
2018-10-07T01:55:38.068Z,99.90
2018-10-07T01:58:05.539Z,99.90
2018-10-07T02:00:33.059Z,99.90
2018-10-07T02:03:00.617Z,99.90
2018-10-07T02:05:28.115Z,99.90
2018-10-07T02:07:55.615Z,99.90
2018-10-07T02:10:23.143Z,99.90
2018-10-07T02:12:50.667Z,99.90
2018-10-07T02:15:18.253Z,99.90
2018-10-07T02:17:45.863Z,99.90
2018-10-07T02:20:13.417Z,99.90
2018-10-07T02:22:40.923Z,99.90
2018-10-07T02:25:08.498Z,99.90
2018-10-07T02:27:36.042Z,99.90
2018-10-07T02:30:03.661Z,99.90
2018-10-07T02:32:31.151Z,99.90
2018-10-07T02:34:58.660Z,99.90
2018-10-07T02:37:26.174Z,99.90
2018-10-07T02:39:53.665Z,99.90
2018-10-07T02:42:21.137Z,99.90
2018-10-07T02:44:48.693Z,99.90
2018-10-07T02:47:16.249Z,99.90
2018-10-07T02:49:43.773Z,99.90
2018-10-07T02:52:11.373Z,99.90
2018-10-07T02:54:38.933Z,99.90
2018-10-07T02:57:06.880Z,99.90
2018-10-07T02:59:34.427Z,99.90
2018-10-07T03:02:02.013Z,99.90
2018-10-07T03:04:29.590Z,99.90
2018-10-07T03:06:57.099Z,99.90
2018-10-07T03:09:24.635Z,99.90
2018-10-07T03:11:52.175Z,99.90
2018-10-07T03:14:19.717Z,99.90
2018-10-07T03:16:47.239Z,99.90
2018-10-07T03:19:14.764Z,99.90
2018-10-07T03:21:42.322Z,99.90
2018-10-07T03:24:09.789Z,99.90
2018-10-07T03:26:37.314Z,99.90
2018-10-07T03:29:04.794Z,99.90
2018-10-07T03:31:32.259Z,99.90
2018-10-07T03:33:59.764Z,99.90
2018-10-07T03:36:27.260Z,99.90
2018-10-07T03:38:54.784Z,99.90
2018-10-07T03:41:22.297Z,99.90
2018-10-07T03:43:49.780Z,99.90
2018-10-07T03:46:17.286Z,99.90
2018-10-07T03:48:44.777Z,99.90
2018-10-07T03:51:12.256Z,99.90
2018-10-07T03:53:39.736Z,99.90
2018-10-07T03:56:07.232Z,99.90
2018-10-07T03:58:34.710Z,99.90
2018-10-07T04:01:02.266Z,99.90
2018-10-07T04:03:29.785Z,99.90
2018-10-07T04:05:57.321Z,99.90
2018-10-07T04:08:24.827Z,99.90
2018-10-07T04:10:52.324Z,99.90
2018-10-07T04:13:19.823Z,99.90
2018-10-07T04:15:47.288Z,99.90
2018-10-07T04:18:14.793Z,99.90
2018-10-07T04:20:42.270Z,99.90
2018-10-07T04:23:09.724Z,99.90
2018-10-07T04:25:37.189Z,99.90
2018-10-07T04:28:04.690Z,99.90
2018-10-07T04:30:32.162Z,99.90
2018-10-07T04:32:59.714Z,99.90
2018-10-07T04:35:27.218Z,99.90
2018-10-07T04:37:54.704Z,99.90
2018-10-07T04:40:22.192Z,99.90
2018-10-07T04:42:49.695Z,99.90
2018-10-07T04:45:18.459Z,99.90
2018-10-07T04:47:45.925Z,99.90
2018-10-07T04:50:13.467Z,99.90
2018-10-07T04:52:41.031Z,99.90
2018-10-07T04:55:08.521Z,99.90
2018-10-07T04:57:36.009Z,99.90
2018-10-07T05:00:03.807Z,99.90
2018-10-07T05:02:31.234Z,99.90
2018-10-07T05:04:58.836Z,99.90
2018-10-07T05:07:26.439Z,99.90
2018-10-07T05:10:05.372Z,99.90
2018-10-07T05:12:32.961Z,99.90
2018-10-07T05:15:00.548Z,99.90
2018-10-07T05:17:28.594Z,99.90
2018-10-07T05:19:56.111Z,99.90
2018-10-07T05:22:23.598Z,99.90
2018-10-07T05:24:51.080Z,99.90
2018-10-07T05:27:18.635Z,99.90
2018-10-07T05:29:46.148Z,99.90
2018-10-07T05:32:13.692Z,99.90
2018-10-07T05:34:41.241Z,99.90
2018-10-07T05:37:08.776Z,99.90
2018-10-07T05:39:36.329Z,99.90
2018-10-07T05:42:03.844Z,99.90
2018-10-07T05:44:31.444Z,99.90
2018-10-07T05:46:58.835Z,99.90
2018-10-07T05:49:26.317Z,99.90
2018-10-07T05:51:53.799Z,99.90
2018-10-07T05:54:21.327Z,99.90
2018-10-07T05:56:48.815Z,99.90
2018-10-07T05:59:16.420Z,99.90
2018-10-07T06:01:44.573Z,99.90
2018-10-07T06:04:32.695Z,99.90
2018-10-07T06:07:02.290Z,99.90
2018-10-07T06:09:32.769Z,99.90
2018-10-07T06:12:00.310Z,99.90
2018-10-07T06:14:39.335Z,99.90
2018-10-07T06:17:06.950Z,99.90
2018-10-07T06:19:34.438Z,99.90
2018-10-07T06:22:03.220Z,99.90
2018-10-07T06:24:30.973Z,99.90
2018-10-07T06:26:58.491Z,99.90
2018-10-07T06:29:26.446Z,99.90
2018-10-07T06:31:54.010Z,99.90
2018-10-07T06:34:21.863Z,99.90
2018-10-07T06:36:49.399Z,99.90
2018-10-07T06:39:16.951Z,99.90
2018-10-07T06:41:44.565Z,99.90
2018-10-07T06:44:12.156Z,99.90
2018-10-07T06:46:39.935Z,99.90
2018-10-07T06:49:07.509Z,99.90
2018-10-07T06:51:35.532Z,99.90
2018-10-07T06:54:03.085Z,99.90
2018-10-07T06:56:30.619Z,99.90
2018-10-07T06:58:58.115Z,98.10
2018-10-07T07:01:25.683Z,95.60
2018-10-07T07:03:53.196Z,93.00
2018-10-07T07:06:20.736Z,90.40
2018-10-07T07:08:48.290Z,85.60
2018-10-07T07:11:15.848Z,74.50
2018-10-07T07:13:43.360Z,72.70
2018-10-07T07:16:10.962Z,70.20
2018-10-07T07:18:38.604Z,65.80
2018-10-07T07:21:06.231Z,63.00
2018-10-07T07:23:33.830Z,59.40
2018-10-07T07:26:01.434Z,57.70
2018-10-07T07:28:29.018Z,55.70
2018-10-07T07:30:56.600Z,54.00
2018-10-07T07:33:24.076Z,53.20
2018-10-07T07:35:51.650Z,52.20
2018-10-07T07:38:19.207Z,50.40
2018-10-07T07:40:46.755Z,49.80
2018-10-07T07:43:14.279Z,48.70
2018-10-07T07:45:41.827Z,47.90
2018-10-07T07:48:09.346Z,46.90
2018-10-07T07:50:36.863Z,45.50
2018-10-07T07:53:04.450Z,44.70
2018-10-07T07:55:32.079Z,43.50
2018-10-07T07:57:59.745Z,43.40
2018-10-07T08:00:27.312Z,42.80
2018-10-07T08:02:54.888Z,42.20
2018-10-07T08:05:22.486Z,42.40
2018-10-07T08:07:50.329Z,44.10
2018-10-07T08:10:17.960Z,45.20
2018-10-07T08:12:45.578Z,46.00
2018-10-07T08:15:13.215Z,46.40
2018-10-07T08:17:40.777Z,47.60
2018-10-07T08:20:08.388Z,48.40
2018-10-07T08:22:35.917Z,48.30
2018-10-07T08:25:03.541Z,47.50
2018-10-07T08:27:31.141Z,46.50
2018-10-07T08:29:58.757Z,45.30
2018-10-07T08:32:26.355Z,44.80
2018-10-07T08:34:53.933Z,44.10
2018-10-07T08:37:21.541Z,43.20
2018-10-07T08:39:49.101Z,42.60
2018-10-07T08:42:16.635Z,42.10
2018-10-07T08:44:44.237Z,41.90
2018-10-07T08:47:11.766Z,41.80
2018-10-07T08:49:39.351Z,42.50
2018-10-07T08:52:06.927Z,43.10
2018-10-07T08:54:34.466Z,43.40
2018-10-07T08:57:02.884Z,43.90
2018-10-07T08:59:30.436Z,44.70
2018-10-07T09:01:58.278Z,45.40
2018-10-07T09:04:26.079Z,46.10
2018-10-07T09:06:53.650Z,47.60
2018-10-07T09:09:21.215Z,48.70
2018-10-07T09:11:48.796Z,49.50
2018-10-07T09:14:16.539Z,50.20
2018-10-07T09:16:44.069Z,51.20
2018-10-07T09:19:11.665Z,51.60
2018-10-07T09:21:39.227Z,52.40
2018-10-07T09:24:06.751Z,53.40
2018-10-07T09:26:34.277Z,54.30
2018-10-07T09:29:01.904Z,55.00
2018-10-07T09:31:29.429Z,55.60
2018-10-07T09:33:56.955Z,56.40
2018-10-07T09:36:24.576Z,57.20
2018-10-07T09:38:52.069Z,57.70
2018-10-07T09:41:19.632Z,58.30
2018-10-07T09:43:47.160Z,58.90
2018-10-07T09:46:14.817Z,59.40
2018-10-07T09:48:43.578Z,60.20
2018-10-07T09:51:11.147Z,61.20
2018-10-07T09:53:38.712Z,62.30
2018-10-07T09:56:06.315Z,63.20
2018-10-07T09:58:33.903Z,64.30
2018-10-07T10:01:01.432Z,65.80
2018-10-07T10:03:28.929Z,66.40
2018-10-07T10:05:56.711Z,67.50
2018-10-07T10:08:24.354Z,68.30
2018-10-07T10:10:51.854Z,69.60
2018-10-07T10:13:19.463Z,70.30
2018-10-07T10:15:47.029Z,71.10
2018-10-07T10:18:24.155Z,72.10
2018-10-07T10:20:55.769Z,73.40
2018-10-07T10:24:32.361Z,74.60
2018-10-07T10:27:19.943Z,75.70
2018-10-07T10:29:51.772Z,77.10
2018-10-07T10:32:31.904Z,78.50
2018-10-07T10:35:11.060Z,79.40
2018-10-07T10:38:46.674Z,80.30
2018-10-07T10:41:21.932Z,81.60
2018-10-07T10:43:57.101Z,83.20
2018-10-07T10:47:30.472Z,84.40
2018-10-07T10:50:41.442Z,86.10
2018-10-07T10:53:44.426Z,87.30
2018-10-07T10:56:21.100Z,88.30
2018-10-07T10:59:12.412Z,89.80
2018-10-07T11:03:56.815Z,90.30
2018-10-07T11:06:47.268Z,90.80
2018-10-07T11:09:27.948Z,91.60
2018-10-07T11:12:03.475Z,91.90
2018-10-07T11:14:42.455Z,92.40
2018-10-07T11:19:27.487Z,92.70
2018-10-07T11:22:05.896Z,92.90
2018-10-07T11:25:02.161Z,93.00
2018-10-07T11:27:40.462Z,93.40
2018-10-07T11:32:27.252Z,93.70
2018-10-07T11:35:06.171Z,94.10
2018-10-07T11:37:44.509Z,94.40
2018-10-07T11:40:32.986Z,94.90
2018-10-07T11:43:11.254Z,95.20
2018-10-07T11:45:43.994Z,95.40
2018-10-07T11:48:20.519Z,95.50
2018-10-07T11:53:06.012Z,95.70
2018-10-07T11:55:33.696Z,95.80
2018-10-07T11:58:02.937Z,95.80
2018-10-07T12:00:30.443Z,95.90
2018-10-07T12:02:57.987Z,96.00
2018-10-07T12:05:25.513Z,96.20
2018-10-07T12:07:53.089Z,96.30
2018-10-07T12:10:20.681Z,96.30
2018-10-07T12:12:48.162Z,96.40
2018-10-07T12:15:15.656Z,96.50
2018-10-07T12:17:43.164Z,96.60
2018-10-07T12:20:10.683Z,96.80
2018-10-07T12:22:38.196Z,97.10
2018-10-07T12:25:05.850Z,97.40
2018-10-07T12:27:33.396Z,97.70
2018-10-07T12:30:01.000Z,97.80
2018-10-07T12:32:28.588Z,98.30
2018-10-07T12:34:56.120Z,98.60
2018-10-07T12:37:23.684Z,98.70
2018-10-07T12:39:51.214Z,98.90
2018-10-07T12:42:18.710Z,99.00
2018-10-07T12:44:46.240Z,99.10
2018-10-07T12:47:13.776Z,99.40
2018-10-07T12:49:42.027Z,99.20
2018-10-07T12:52:09.726Z,99.20
2018-10-07T12:54:37.370Z,99.30
2018-10-07T12:57:04.804Z,99.30
2018-10-07T12:59:32.407Z,99.40
2018-10-07T13:02:02.011Z,99.40
2018-10-07T13:04:29.510Z,99.70
2018-10-07T13:06:57.137Z,99.50
2018-10-07T13:09:24.659Z,99.70
2018-10-07T13:11:52.246Z,99.90
2018-10-07T13:14:19.810Z,99.90
2018-10-07T13:16:47.374Z,99.90
2018-10-07T13:19:15.163Z,99.90
2018-10-07T13:21:42.753Z,99.90
2018-10-07T13:24:10.360Z,99.90
2018-10-07T13:26:37.845Z,99.90
2018-10-07T13:29:05.417Z,99.90
2018-10-07T13:31:32.932Z,99.90
2018-10-07T13:34:00.681Z,99.90
2018-10-07T13:36:28.259Z,99.90
2018-10-07T13:38:55.916Z,99.90
2018-10-07T13:41:23.405Z,99.90
2018-10-07T13:43:50.935Z,99.90
2018-10-07T13:46:18.504Z,99.90
2018-10-07T13:48:46.019Z,99.90
2018-10-07T13:51:13.547Z,99.90
2018-10-07T13:53:41.125Z,99.90
2018-10-07T13:56:08.702Z,99.90
2018-10-07T13:58:36.229Z,99.90
2018-10-07T14:01:03.774Z,99.90
2018-10-07T14:03:31.415Z,99.90
2018-10-07T14:05:58.877Z,99.90
2018-10-07T14:08:26.351Z,99.90
2018-10-07T14:10:53.882Z,99.90
2018-10-07T14:13:21.361Z,99.90
2018-10-07T14:15:48.859Z,99.90
2018-10-07T14:18:16.400Z,99.90
2018-10-07T14:20:43.894Z,99.90
2018-10-07T14:23:11.449Z,99.90
2018-10-07T14:25:38.951Z,99.90
2018-10-07T14:28:06.467Z,99.90
2018-10-07T14:30:33.983Z,99.90
2018-10-07T14:33:01.525Z,99.90
2018-10-07T14:35:29.087Z,99.90
2018-10-07T14:37:56.608Z,99.90
2018-10-07T14:40:24.150Z,99.90
2018-10-07T14:42:51.668Z,99.90
2018-10-07T14:45:19.251Z,99.90
2018-10-07T14:47:46.781Z,99.90
2018-10-07T14:50:14.312Z,99.90
2018-10-07T14:52:41.794Z,99.90
2018-10-07T14:55:09.432Z,99.90
2018-10-07T14:57:38.300Z,99.90
2018-10-07T15:00:06.576Z,99.90
2018-10-07T15:02:34.169Z,99.90
2018-10-07T15:05:01.698Z,99.90
2018-10-07T15:07:30.079Z,99.90
2018-10-07T15:09:57.615Z,99.90
2018-10-07T15:12:25.123Z,99.90
2018-10-07T15:14:52.637Z,99.90
2018-10-07T15:17:20.123Z,99.90
2018-10-07T15:19:47.651Z,99.90
2018-10-07T15:22:15.180Z,99.90
2018-10-07T15:24:42.686Z,99.90
2018-10-07T15:27:10.313Z,99.90
2018-10-07T15:29:37.897Z,99.90
2018-10-07T15:32:05.358Z,99.90
2018-10-07T15:34:32.840Z,99.90
2018-10-07T15:37:00.348Z,99.90
2018-10-07T15:39:27.863Z,99.90
2018-10-07T15:41:55.439Z,99.90
2018-10-07T15:44:23.008Z,99.90
2018-10-07T15:46:50.510Z,99.90
2018-10-07T15:49:18.048Z,99.90
2018-10-07T15:51:45.550Z,99.90
2018-10-07T15:54:13.067Z,99.90
2018-10-07T15:56:40.632Z,99.90
2018-10-07T15:59:08.109Z,99.90
2018-10-07T16:01:35.890Z,99.90
2018-10-07T16:04:04.090Z,99.90
2018-10-07T16:06:31.634Z,99.90
2018-10-07T16:09:00.204Z,99.90
2018-10-07T16:11:27.739Z,99.90
2018-10-07T16:13:55.330Z,99.90
2018-10-07T16:16:22.941Z,99.90
2018-10-07T16:18:50.529Z,99.90
2018-10-07T16:21:18.065Z,99.90
2018-10-07T16:23:45.651Z,99.90
2018-10-07T16:26:13.293Z,99.90
2018-10-07T16:28:40.731Z,99.90
2018-10-07T16:31:08.279Z,99.90
2018-10-07T16:33:35.890Z,99.90
2018-10-07T16:36:03.440Z,99.90
2018-10-07T16:38:31.449Z,99.90
2018-10-07T16:40:58.998Z,99.90
2018-10-07T16:43:26.635Z,99.90
2018-10-07T16:45:54.177Z,99.90
2018-10-07T16:48:21.937Z,99.90
2018-10-07T16:50:49.440Z,99.90
2018-10-07T16:53:17.064Z,99.90
2018-10-07T16:55:44.717Z,99.90
2018-10-07T16:58:12.302Z,99.90
2018-10-07T17:00:40.287Z,99.90
2018-10-07T17:03:08.027Z,99.90
2018-10-07T17:05:35.732Z,99.90
2018-10-07T17:08:03.269Z,99.90
2018-10-07T17:10:31.011Z,99.90
2018-10-07T17:12:58.658Z,99.90
2018-10-07T17:15:26.515Z,99.90
2018-10-07T17:17:54.114Z,99.90
2018-10-07T17:20:22.636Z,99.90
2018-10-07T17:22:50.269Z,99.90
2018-10-07T17:25:18.225Z,99.90
2018-10-07T17:27:45.854Z,99.90
2018-10-07T17:30:14.640Z,99.90
2018-10-07T17:32:42.382Z,99.90
2018-10-07T17:35:13.388Z,99.90
2018-10-07T17:37:41.072Z,99.90
2018-10-07T17:40:08.755Z,99.90
2018-10-07T17:42:38.403Z,99.90
2018-10-07T17:45:06.353Z,99.90
2018-10-07T17:47:34.488Z,99.90
2018-10-07T17:50:02.269Z,99.90
2018-10-07T17:52:29.938Z,99.90
2018-10-07T17:54:58.216Z,99.90
2018-10-07T17:57:26.168Z,99.90
2018-10-07T17:59:53.782Z,99.90
2018-10-07T18:02:21.460Z,99.90
2018-10-07T18:04:49.079Z,99.90
2018-10-07T18:07:16.642Z,99.90
2018-10-07T18:09:44.289Z,99.90
2018-10-07T18:12:11.980Z,99.90
2018-10-07T18:14:39.537Z,99.90
2018-10-07T18:17:07.274Z,99.90
2018-10-07T18:19:35.178Z,99.90
2018-10-07T18:22:02.829Z,99.90
2018-10-07T18:24:30.393Z,99.90
2018-10-07T18:26:58.466Z,99.90
2018-10-07T18:29:26.001Z,99.90
2018-10-07T18:31:53.623Z,99.90
2018-10-07T18:34:21.632Z,99.90
2018-10-07T18:36:49.334Z,99.90
2018-10-07T18:39:17.638Z,99.90
2018-10-07T18:41:45.642Z,99.90
2018-10-07T18:44:14.141Z,99.90
2018-10-07T18:46:48.048Z,99.90
2018-10-07T18:49:16.012Z,99.90
2018-10-07T18:51:44.070Z,99.90
2018-10-07T18:54:12.288Z,99.90
2018-10-07T18:56:40.036Z,99.90
2018-10-07T18:59:07.764Z,99.90
2018-10-07T19:01:35.382Z,99.90
2018-10-07T19:04:03.008Z,99.90
2018-10-07T19:06:30.736Z,99.90
2018-10-07T19:08:58.398Z,99.90
2018-10-07T19:11:26.017Z,99.90
2018-10-07T19:13:53.798Z,99.90
2018-10-07T19:16:21.494Z,99.90
2018-10-07T19:18:49.496Z,99.90
2018-10-07T19:21:17.146Z,99.90
2018-10-07T19:23:45.323Z,99.90
2018-10-07T19:26:13.360Z,99.90
2018-10-07T19:28:40.993Z,99.90
2018-10-07T19:31:08.616Z,99.90
2018-10-07T19:33:38.243Z,99.90
2018-10-07T19:36:06.022Z,99.90
2018-10-07T19:38:34.385Z,99.90
2018-10-07T19:41:02.118Z,99.90
2018-10-07T19:43:31.754Z,99.90
2018-10-07T19:45:59.416Z,99.90
2018-10-07T19:48:27.205Z,99.90
2018-10-07T19:50:55.770Z,99.90
2018-10-07T19:53:23.995Z,99.90
2018-10-07T19:55:52.235Z,99.90
2018-10-07T19:58:21.012Z,99.90
2018-10-07T20:00:49.005Z,99.90
2018-10-07T20:03:16.688Z,99.90
2018-10-07T20:05:45.684Z,99.90
2018-10-07T20:08:13.547Z,99.90
2018-10-07T20:10:41.161Z,99.90
2018-10-07T20:13:09.068Z,99.90
2018-10-07T20:15:37.692Z,99.90
2018-10-07T20:18:05.392Z,99.90
2018-10-07T20:20:32.942Z,99.90
2018-10-07T20:23:00.569Z,99.90
2018-10-07T20:25:29.490Z,99.90
2018-10-07T20:27:57.060Z,99.90
2018-10-07T20:30:25.357Z,99.90
2018-10-07T20:32:52.952Z,99.90
2018-10-07T20:35:20.564Z,99.90
2018-10-07T20:37:48.268Z,99.90
2018-10-07T20:40:15.857Z,99.90
2018-10-07T20:42:43.462Z,99.90
2018-10-07T20:45:11.056Z,99.90
2018-10-07T20:47:38.686Z,99.90
2018-10-07T20:50:06.323Z,99.90
2018-10-07T20:52:33.972Z,99.90
2018-10-07T20:55:01.477Z,99.90
2018-10-07T20:57:29.180Z,99.90
2018-10-07T20:59:57.027Z,99.90
2018-10-07T21:02:24.569Z,99.90
2018-10-07T21:04:52.156Z,99.90
2018-10-07T21:07:19.671Z,99.90
2018-10-07T21:09:47.379Z,99.90
2018-10-07T21:12:14.978Z,99.90
2018-10-07T21:14:42.652Z,99.90
2018-10-07T21:17:10.230Z,99.90
2018-10-07T21:19:37.739Z,99.90
2018-10-07T21:22:05.375Z,99.90
2018-10-07T21:24:32.944Z,99.90
2018-10-07T21:27:00.498Z,99.90
2018-10-07T21:29:29.003Z,99.90
2018-10-07T21:31:55.544Z,99.90
2018-10-07T21:34:23.049Z,99.90
2018-10-07T21:36:50.578Z,99.90
2018-10-07T21:39:18.098Z,99.90
2018-10-07T21:41:45.720Z,99.90
2018-10-07T21:44:13.185Z,99.90
2018-10-07T21:46:40.756Z,99.90
2018-10-07T21:49:08.270Z,99.90
2018-10-07T21:51:35.787Z,99.90
2018-10-07T21:54:03.477Z,99.90
2018-10-07T21:56:30.965Z,99.90
2018-10-07T21:58:58.452Z,99.90
2018-10-07T22:01:25.947Z,99.90
2018-10-07T22:03:53.456Z,99.90
2018-10-07T22:06:20.963Z,99.90
2018-10-07T22:08:48.455Z,99.90
2018-10-07T22:11:15.953Z,99.90
2018-10-07T22:13:43.430Z,99.90
2018-10-07T22:16:10.884Z,99.90
2018-10-07T22:18:38.378Z,99.90
2018-10-07T22:21:05.898Z,99.90
2018-10-07T22:23:33.871Z,99.90
2018-10-07T22:26:01.372Z,99.90
2018-10-07T22:28:28.851Z,99.90
2018-10-07T22:30:56.371Z,99.90
2018-10-07T22:33:24.466Z,99.90
2018-10-07T22:35:51.998Z,99.90
2018-10-07T22:38:19.495Z,99.90
2018-10-07T22:40:46.990Z,99.90
2018-10-07T22:43:14.451Z,99.90
2018-10-07T22:45:41.956Z,99.90
2018-10-07T22:48:09.429Z,99.90
2018-10-07T22:50:36.921Z,99.90
2018-10-07T22:53:04.465Z,99.90
2018-10-07T22:55:31.962Z,99.90
2018-10-07T22:57:59.424Z,99.90
2018-10-07T23:00:26.980Z,99.90
2018-10-07T23:02:54.444Z,99.90
2018-10-07T23:05:21.918Z,99.90
2018-10-07T23:07:49.418Z,99.90
2018-10-07T23:10:16.892Z,99.90
2018-10-07T23:12:44.370Z,99.90
2018-10-07T23:15:11.851Z,99.90
2018-10-07T23:17:39.328Z,99.90
2018-10-07T23:20:06.840Z,99.90
2018-10-07T23:22:34.321Z,99.90
2018-10-07T23:25:01.798Z,99.90
2018-10-07T23:27:29.273Z,99.90
2018-10-07T23:29:56.853Z,99.90
2018-10-07T23:32:24.360Z,99.90
2018-10-07T23:34:51.853Z,99.90
2018-10-07T23:37:19.402Z,99.90
2018-10-07T23:39:46.872Z,99.90
2018-10-07T23:42:14.344Z,99.90
2018-10-07T23:44:41.858Z,99.90
2018-10-07T23:47:09.323Z,99.90
2018-10-07T23:49:36.784Z,99.90
2018-10-07T23:52:04.547Z,99.90
2018-10-07T23:54:32.013Z,99.90
2018-10-07T23:56:59.495Z,99.90
2018-10-07T23:59:26.984Z,99.90
